createdAt,value
2022-09-23T00:00:58.087Z,10.21
2022-09-23T00:03:24.469Z,10.31
2022-09-23T00:05:59.285Z,10.28
2022-09-23T00:08:25.832Z,10.38
2022-09-23T00:10:52.201Z,10.39
2022-09-23T00:13:18.795Z,10.37
2022-09-23T00:15:45.167Z,10.35
2022-09-23T00:18:11.521Z,10.21
2022-09-23T00:20:37.918Z,10.20
2022-09-23T00:23:04.309Z,10.19
2022-09-23T00:25:30.676Z,10.20
2022-09-23T00:27:57.196Z,10.22
2022-09-23T00:30:25.212Z,10.19
2022-09-23T00:32:51.683Z,10.24
2022-09-23T00:35:18.179Z,10.26
2022-09-23T00:37:44.534Z,10.24
2022-09-23T00:40:10.987Z,10.26
2022-09-23T00:42:37.538Z,10.27
2022-09-23T00:45:04.524Z,10.29
2022-09-23T00:47:53.676Z,10.38
2022-09-23T00:50:28.804Z,10.31
2022-09-23T00:52:58.214Z,10.32
2022-09-23T00:55:36.531Z,10.33
2022-09-23T00:58:04.901Z,10.33
2022-09-23T01:00:31.392Z,10.33
2022-09-23T01:02:57.761Z,10.30
2022-09-23T01:05:24.188Z,10.25
2022-09-23T01:07:50.895Z,10.27
2022-09-23T01:10:17.878Z,10.31
2022-09-23T01:13:07.704Z,10.34
2022-09-23T01:15:48.401Z,10.43
2022-09-23T01:18:40.396Z,10.37
2022-09-23T01:21:18.518Z,10.41
2022-09-23T01:24:19.038Z,10.38
2022-09-23T01:27:02.432Z,10.30
2022-09-23T01:29:56.854Z,10.28
2022-09-23T01:33:02.389Z,10.27
2022-09-23T01:35:42.438Z,10.22
2022-09-23T01:38:31.517Z,10.15
2022-09-23T01:41:14.218Z,10.08
2022-09-23T01:43:54.186Z,9.98
2022-09-23T01:46:26.117Z,9.85
2022-09-23T01:49:04.756Z,9.79
2022-09-23T01:51:37.364Z,9.67
2022-09-23T01:54:13.338Z,9.56
2022-09-23T01:56:45.961Z,9.48
2022-09-23T01:59:18.566Z,9.43
2022-09-23T02:01:57.303Z,9.40
2022-09-23T02:04:32.642Z,9.31
2022-09-23T02:07:04.134Z,9.25
2022-09-23T02:09:41.114Z,9.24
2022-09-23T02:12:16.632Z,9.17
2022-09-23T02:14:53.087Z,9.15
2022-09-23T02:17:46.332Z,9.06
2022-09-23T02:20:15.888Z,9.01
2022-09-23T02:23:02.060Z,9.02
2022-09-23T02:25:40.525Z,8.95
2022-09-23T02:28:12.121Z,8.95
2022-09-23T02:30:45.189Z,8.98
2022-09-23T02:33:21.906Z,8.92
2022-09-23T02:36:03.518Z,8.88
2022-09-23T02:38:46.358Z,8.90
2022-09-23T02:41:29.015Z,8.87
2022-09-23T02:44:08.895Z,8.89
2022-09-23T02:46:37.003Z,8.91
2022-09-23T02:49:11.480Z,8.89
2022-09-23T02:51:39.621Z,8.86
2022-09-23T02:54:09.256Z,8.86
2022-09-23T02:56:35.628Z,8.88
2022-09-23T02:59:02.229Z,8.85
2022-09-23T03:01:47.446Z,8.86
2022-09-23T03:04:41.793Z,8.83
2022-09-23T03:07:39.620Z,8.81
2022-09-23T03:10:21.217Z,8.75
2022-09-23T03:13:02.843Z,8.71
2022-09-23T03:15:54.650Z,8.68
2022-09-23T03:18:31.553Z,8.65
2022-09-23T03:21:05.055Z,8.60
2022-09-23T03:23:35.475Z,8.57
2022-09-23T03:26:08.141Z,8.57
2022-09-23T03:28:38.854Z,8.54
2022-09-23T03:31:06.018Z,8.54
2022-09-23T03:33:34.180Z,8.57
2022-09-23T03:36:06.598Z,8.50
2022-09-23T03:38:39.638Z,8.46
2022-09-23T03:41:11.020Z,8.43
2022-09-23T03:43:39.175Z,8.43
2022-09-23T03:46:05.887Z,8.43
2022-09-23T03:48:32.844Z,8.38
2022-09-23T03:51:01.299Z,8.35
2022-09-23T03:53:27.693Z,8.35
2022-09-23T03:55:54.123Z,8.34
2022-09-23T03:58:20.513Z,8.34
2022-09-23T04:00:46.962Z,8.34
2022-09-23T04:03:13.378Z,8.33
2022-09-23T04:05:39.723Z,8.34
2022-09-23T04:08:08.033Z,8.34
2022-09-23T04:10:34.428Z,8.36
2022-09-23T04:13:00.781Z,8.35
2022-09-23T04:15:27.193Z,8.41
2022-09-23T04:17:53.560Z,8.47
2022-09-23T04:20:19.916Z,8.52
2022-09-23T04:22:46.298Z,8.56
2022-09-23T04:25:12.749Z,8.62
2022-09-23T04:27:39.079Z,8.68
2022-09-23T04:30:06.137Z,8.73
2022-09-23T04:32:32.501Z,8.79
2022-09-23T04:34:58.900Z,8.83
2022-09-23T04:37:25.271Z,8.86
2022-09-23T04:39:51.653Z,8.83
2022-09-23T04:42:18.067Z,8.84
2022-09-23T04:44:44.412Z,8.87
2022-09-23T04:47:10.889Z,8.89
2022-09-23T04:49:37.278Z,8.88
2022-09-23T04:52:03.865Z,8.91
2022-09-23T04:54:30.248Z,8.98
2022-09-23T04:56:56.821Z,8.91
2022-09-23T04:59:23.316Z,8.89
2022-09-23T05:01:49.778Z,8.96
2022-09-23T05:04:16.188Z,9.05
2022-09-23T05:06:42.529Z,9.05
2022-09-23T05:09:09.067Z,9.02
2022-09-23T05:11:35.833Z,9.06
2022-09-23T05:14:02.343Z,9.11
2022-09-23T05:16:29.198Z,9.15
2022-09-23T05:18:55.628Z,9.13
2022-09-23T05:21:24.025Z,9.11
2022-09-23T05:23:52.998Z,9.18
2022-09-23T05:26:20.471Z,9.55
2022-09-23T05:28:46.961Z,9.45
2022-09-23T05:31:20.083Z,9.42
2022-09-23T05:33:52.126Z,9.44
2022-09-23T05:36:20.160Z,9.40
2022-09-23T05:38:46.975Z,9.33
2022-09-23T05:41:13.596Z,9.46
2022-09-23T05:43:40.439Z,9.39
2022-09-23T05:46:26.036Z,9.52
2022-09-23T05:48:52.421Z,9.58
2022-09-23T05:51:21.334Z,9.65
2022-09-23T05:53:48.678Z,9.71
2022-09-23T05:56:17.701Z,9.72
2022-09-23T05:58:44.614Z,9.74
2022-09-23T06:01:16.690Z,9.80
2022-09-23T06:03:46.546Z,9.89
2022-09-23T06:06:14.367Z,10.02
2022-09-23T06:08:41.841Z,10.13
2022-09-23T06:11:08.683Z,10.16
2022-09-23T06:13:36.061Z,10.33
2022-09-23T06:16:03.260Z,10.38
2022-09-23T06:18:29.804Z,10.58
2022-09-23T06:20:56.247Z,10.75
2022-09-23T06:23:25.553Z,10.80
2022-09-23T06:25:53.039Z,10.87
2022-09-23T06:28:19.471Z,10.97
2022-09-23T06:30:45.886Z,11.05
2022-09-23T06:33:12.365Z,11.19
2022-09-23T06:35:38.945Z,11.21
2022-09-23T06:38:05.562Z,11.27
2022-09-23T06:40:32.229Z,11.40
2022-09-23T06:43:00.757Z,11.55
2022-09-23T06:45:27.947Z,11.57
2022-09-23T06:47:55.798Z,11.65
2022-09-23T06:50:22.730Z,11.76
2022-09-23T06:52:53.415Z,11.90
2022-09-23T06:55:19.791Z,12.06
2022-09-23T06:57:46.193Z,12.27
2022-09-23T07:00:13.311Z,12.62
2022-09-23T07:02:41.092Z,12.84
2022-09-23T07:05:08.657Z,12.99
2022-09-23T07:07:35.711Z,12.91
2022-09-23T07:10:02.335Z,12.92
2022-09-23T07:12:28.697Z,13.07
2022-09-23T07:14:55.171Z,13.13
2022-09-23T07:17:21.525Z,12.97
2022-09-23T07:19:47.857Z,12.92
2022-09-23T07:22:14.331Z,12.88
2022-09-23T07:24:40.758Z,12.81
2022-09-23T07:27:08.418Z,13.04
2022-09-23T07:29:45.766Z,12.85
2022-09-23T07:32:14.639Z,13.01
2022-09-23T07:34:41.471Z,13.23
2022-09-23T07:37:09.295Z,13.42
2022-09-23T07:39:40.257Z,13.61
2022-09-23T07:42:12.285Z,13.78
2022-09-23T07:44:39.361Z,13.98
2022-09-23T07:47:08.208Z,14.07
2022-09-23T07:49:35.611Z,14.16
2022-09-23T07:52:07.216Z,14.16
2022-09-23T07:54:33.593Z,14.22
2022-09-23T07:57:00.355Z,14.59
2022-09-23T07:59:26.739Z,14.90
2022-09-23T08:01:54.036Z,15.21
2022-09-23T08:04:29.897Z,15.64
2022-09-23T08:06:59.195Z,16.09
2022-09-23T08:09:45.842Z,16.49
2022-09-23T08:12:16.348Z,16.50
2022-09-23T08:14:43.185Z,16.59
2022-09-23T08:17:09.723Z,16.51
2022-09-23T08:19:36.168Z,16.48
2022-09-23T08:22:02.603Z,16.57
2022-09-23T08:24:29.141Z,16.48
2022-09-23T08:26:57.939Z,16.47
2022-09-23T08:29:25.883Z,16.49
2022-09-23T08:31:53.577Z,16.64
2022-09-23T08:34:21.890Z,16.66
2022-09-23T08:36:48.324Z,16.63
2022-09-23T08:39:17.290Z,16.52
2022-09-23T08:42:11.576Z,16.39
2022-09-23T08:44:49.535Z,16.60
2022-09-23T08:47:18.229Z,16.60
2022-09-23T08:49:50.452Z,16.52
2022-09-23T08:52:28.954Z,16.54
2022-09-23T08:54:55.726Z,16.56
2022-09-23T08:57:41.613Z,16.49
2022-09-23T09:00:17.161Z,16.30
2022-09-23T09:02:43.789Z,16.22
2022-09-23T09:05:12.766Z,16.34
2022-09-23T09:07:45.629Z,16.34
2022-09-23T09:10:36.611Z,16.37
2022-09-23T09:13:11.045Z,16.43
2022-09-23T09:16:02.411Z,16.57
2022-09-23T09:18:38.013Z,16.61
2022-09-23T09:21:18.710Z,16.87
2022-09-23T09:23:56.689Z,17.09
2022-09-23T09:26:36.136Z,17.35
2022-09-23T09:29:34.432Z,17.49
2022-09-23T09:32:16.733Z,17.42
2022-09-23T09:35:02.010Z,17.27
2022-09-23T09:37:43.392Z,17.46
2022-09-23T09:40:18.828Z,17.55
2022-09-23T09:42:53.064Z,17.69
2022-09-23T09:45:43.554Z,17.77
2022-09-23T09:48:25.709Z,17.69
2022-09-23T09:50:59.576Z,17.48
2022-09-23T09:53:34.922Z,17.62
2022-09-23T09:56:06.382Z,17.59
2022-09-23T09:58:48.940Z,17.44
2022-09-23T10:01:51.378Z,17.52
2022-09-23T10:04:38.593Z,17.59
2022-09-23T10:07:26.186Z,17.64
2022-09-23T10:09:58.330Z,17.60
2022-09-23T10:12:47.041Z,17.53
2022-09-23T10:15:32.463Z,17.75
2022-09-23T10:17:59.896Z,17.70
2022-09-23T10:20:35.750Z,17.59
2022-09-23T10:23:12.903Z,17.45
2022-09-23T10:25:42.793Z,17.48
2022-09-23T10:28:39.567Z,17.51
2022-09-23T10:31:22.381Z,17.60
2022-09-23T10:33:56.279Z,17.59
2022-09-23T10:36:26.251Z,17.46
2022-09-23T10:38:59.879Z,17.58
2022-09-23T10:41:43.329Z,17.67
2022-09-23T10:44:20.043Z,17.69
2022-09-23T10:47:04.261Z,17.54
2022-09-23T10:49:49.318Z,17.54
2022-09-23T10:52:56.990Z,17.39
2022-09-23T10:55:48.026Z,17.34
2022-09-23T10:58:28.577Z,17.31
2022-09-23T11:00:55.172Z,17.18
2022-09-23T11:03:37.570Z,17.24
2022-09-23T11:06:09.664Z,17.43
2022-09-23T11:08:54.155Z,17.55
2022-09-23T11:11:23.687Z,17.71
2022-09-23T11:14:02.257Z,17.76
2022-09-23T11:16:45.735Z,17.91
2022-09-23T11:19:18.104Z,18.06
2022-09-23T11:22:06.452Z,18.03
2022-09-23T11:24:57.921Z,18.15
2022-09-23T11:27:39.775Z,18.37
2022-09-23T11:30:12.832Z,18.42
2022-09-23T11:33:12.888Z,18.44
2022-09-23T11:35:52.441Z,18.22
2022-09-23T11:38:39.285Z,18.21
2022-09-23T11:41:30.603Z,18.20
2022-09-23T11:44:06.841Z,18.11
2022-09-23T11:46:40.131Z,18.07
2022-09-23T11:49:33.756Z,17.85
2022-09-23T11:52:08.414Z,17.80
2022-09-23T11:55:19.399Z,17.67
2022-09-23T11:57:55.032Z,17.67
2022-09-23T12:00:28.076Z,17.58
2022-09-23T12:03:07.533Z,17.69
2022-09-23T12:06:01.548Z,17.78
2022-09-23T12:08:39.920Z,17.47
2022-09-23T12:11:19.641Z,17.42
2022-09-23T12:14:23.239Z,17.54
2022-09-23T12:17:14.854Z,17.69
2022-09-23T12:20:18.490Z,17.99
2022-09-23T12:22:58.722Z,18.08
2022-09-23T12:26:25.412Z,18.12
2022-09-23T12:29:02.237Z,18.09
2022-09-23T12:35:10.461Z,18.25
2022-09-23T12:37:58.638Z,18.18
2022-09-23T12:40:46.823Z,17.84
2022-09-23T12:43:38.739Z,17.61
2022-09-23T12:46:26.304Z,17.57
2022-09-23T12:48:57.411Z,17.42
2022-09-23T12:51:25.877Z,17.30
2022-09-23T12:54:17.196Z,17.38
2022-09-23T12:57:03.969Z,17.41
2022-09-23T13:00:11.543Z,17.39
2022-09-23T13:02:49.791Z,17.31
2022-09-23T13:05:38.178Z,17.16
2022-09-23T13:08:27.032Z,17.23
2022-09-23T13:11:07.881Z,17.22
2022-09-23T13:13:47.232Z,17.31
2022-09-23T13:16:27.418Z,17.02
2022-09-23T13:19:04.664Z,17.00
2022-09-23T13:21:45.614Z,17.05
2022-09-23T13:24:25.615Z,17.00
2022-09-23T13:27:21.753Z,17.00
2022-09-23T13:30:27.104Z,17.04
2022-09-23T13:33:04.929Z,17.02
2022-09-23T13:35:54.337Z,16.76
2022-09-23T13:38:25.041Z,16.81
2022-09-23T13:41:02.396Z,16.75
2022-09-23T13:43:37.603Z,16.84
2022-09-23T13:46:18.434Z,16.82
2022-09-23T13:48:47.318Z,16.97
2022-09-23T13:51:26.031Z,17.04
2022-09-23T13:53:54.567Z,17.14
2022-09-23T13:56:22.115Z,17.15
2022-09-23T13:58:50.982Z,17.30
2022-09-23T14:01:34.458Z,17.09
2022-09-23T14:04:05.191Z,17.05
2022-09-23T14:06:37.905Z,17.06
2022-09-23T14:09:06.467Z,17.08
2022-09-23T14:11:47.529Z,17.04
2022-09-23T14:14:16.411Z,16.97
2022-09-23T14:16:45.640Z,16.92
2022-09-23T14:19:22.373Z,17.16
2022-09-23T14:21:59.477Z,17.23
2022-09-23T14:24:36.737Z,17.32
2022-09-23T14:27:06.126Z,17.34
2022-09-23T14:29:42.008Z,17.48
2022-09-23T14:32:18.675Z,17.71
2022-09-23T14:35:00.506Z,17.46
2022-09-23T14:37:29.879Z,17.30
2022-09-23T14:39:57.879Z,17.39
2022-09-23T14:42:24.617Z,17.47
2022-09-23T14:44:51.009Z,17.49
2022-09-23T14:47:17.524Z,17.49
2022-09-23T14:49:49.670Z,17.40
2022-09-23T14:52:16.864Z,17.25
2022-09-23T14:54:46.413Z,17.18
2022-09-23T14:57:27.242Z,16.66
2022-09-23T15:00:09.847Z,16.59
2022-09-23T15:03:06.113Z,16.46
2022-09-23T15:05:44.439Z,16.48
2022-09-23T15:08:39.493Z,16.42
2022-09-23T15:11:08.207Z,16.32
2022-09-23T15:13:40.295Z,16.18
2022-09-23T15:16:07.686Z,15.94
2022-09-23T15:18:46.152Z,15.84
2022-09-23T15:21:19.441Z,15.93
2022-09-23T15:23:52.088Z,15.88
2022-09-23T15:26:39.964Z,15.93
2022-09-23T15:29:10.241Z,15.92
2022-09-23T15:31:36.909Z,15.93
2022-09-23T15:34:03.885Z,16.05
2022-09-23T15:36:30.330Z,16.00
2022-09-23T15:39:02.008Z,16.01
2022-09-23T15:41:30.449Z,15.94
2022-09-23T15:43:57.078Z,16.01
2022-09-23T15:46:31.158Z,16.01
2022-09-23T15:49:04.959Z,15.97
2022-09-23T15:51:31.475Z,15.97
2022-09-23T15:53:57.928Z,16.03
2022-09-23T15:56:25.141Z,15.99
2022-09-23T15:58:52.847Z,15.97
2022-09-23T16:01:31.591Z,16.01
2022-09-23T16:03:58.282Z,16.00
2022-09-23T16:06:24.725Z,16.10
2022-09-23T16:08:51.250Z,16.09
2022-09-23T16:11:19.786Z,16.11
2022-09-23T16:13:46.448Z,16.07
2022-09-23T16:16:12.996Z,16.08
2022-09-23T16:18:39.584Z,16.05
2022-09-23T16:21:06.275Z,16.02
2022-09-23T16:23:38.810Z,15.96
2022-09-23T16:26:19.439Z,15.89
2022-09-23T16:28:47.475Z,15.84
2022-09-23T16:31:14.763Z,15.80
2022-09-23T16:33:42.178Z,15.75
2022-09-23T16:36:32.298Z,15.68
2022-09-23T16:39:00.737Z,15.64
2022-09-23T16:41:29.037Z,15.55
2022-09-23T16:43:55.961Z,15.48
2022-09-23T16:46:22.793Z,15.45
2022-09-23T16:48:52.939Z,15.48
2022-09-23T16:51:27.891Z,15.54
2022-09-23T16:53:58.494Z,15.41
2022-09-23T16:56:28.614Z,15.34
2022-09-23T16:58:56.605Z,15.27
2022-09-23T17:01:25.705Z,15.28
2022-09-23T17:03:52.528Z,15.18
2022-09-23T17:06:19.059Z,15.23
2022-09-23T17:08:46.652Z,15.20
2022-09-23T17:11:12.999Z,15.22
2022-09-23T17:13:39.419Z,15.22
2022-09-23T17:16:06.023Z,15.12
2022-09-23T17:18:32.467Z,15.14
2022-09-23T17:21:04.785Z,15.17
2022-09-23T17:23:33.534Z,15.01
2022-09-23T17:25:59.972Z,14.87
2022-09-23T17:28:26.623Z,14.92
2022-09-23T17:31:01.055Z,14.93
2022-09-23T17:33:29.753Z,14.87
2022-09-23T17:35:57.284Z,14.80
2022-09-23T17:38:28.719Z,14.79
2022-09-23T17:40:57.901Z,14.82
2022-09-23T17:43:24.273Z,14.90
2022-09-23T17:45:55.779Z,14.82
2022-09-23T17:48:23.755Z,14.84
2022-09-23T17:51:19.592Z,14.89
2022-09-23T17:53:47.238Z,14.83
2022-09-23T17:56:14.895Z,14.79
2022-09-23T17:58:41.891Z,14.82
2022-09-23T18:01:10.667Z,14.84
2022-09-23T18:03:38.125Z,14.79
2022-09-23T18:06:13.766Z,14.78
2022-09-23T18:08:42.346Z,14.76
2022-09-23T18:11:18.216Z,14.82
2022-09-23T18:13:49.292Z,14.86
2022-09-23T18:16:16.196Z,14.79
2022-09-23T18:18:42.696Z,14.79
2022-09-23T18:21:09.183Z,14.81
2022-09-23T18:23:36.635Z,14.79
2022-09-23T18:26:04.133Z,14.79
2022-09-23T18:28:34.684Z,14.77
2022-09-23T18:31:01.404Z,14.70
2022-09-23T18:33:27.801Z,14.75
2022-09-23T18:35:54.158Z,14.81
2022-09-23T18:38:20.617Z,14.73
2022-09-23T18:40:54.431Z,14.68
2022-09-23T18:43:25.945Z,14.70
2022-09-23T18:46:00.485Z,14.73
2022-09-23T18:48:28.542Z,14.64
2022-09-23T18:50:54.946Z,14.62
2022-09-23T18:53:21.471Z,14.57
2022-09-23T18:55:47.823Z,14.57
2022-09-23T18:58:14.393Z,14.57
2022-09-23T19:00:40.965Z,14.57
2022-09-23T19:03:07.455Z,14.57
2022-09-23T19:05:34.177Z,14.56
2022-09-23T19:08:00.843Z,14.66
2022-09-23T19:10:27.192Z,14.63
2022-09-23T19:12:53.533Z,14.58
2022-09-23T19:15:19.944Z,14.52
2022-09-23T19:17:46.437Z,14.52
2022-09-23T19:20:12.890Z,14.55
2022-09-23T19:22:39.468Z,14.57
2022-09-23T19:25:06.570Z,14.57
2022-09-23T19:27:33.279Z,14.59
2022-09-23T19:29:59.715Z,14.65
2022-09-23T19:32:26.158Z,14.68
2022-09-23T19:34:52.722Z,14.69
2022-09-23T19:37:21.481Z,14.76
2022-09-23T19:39:47.982Z,14.77
2022-09-23T19:42:14.414Z,14.72
2022-09-23T19:44:40.871Z,14.62
2022-09-23T19:47:07.517Z,14.64
2022-09-23T19:49:33.925Z,14.62
2022-09-23T19:52:00.552Z,14.57
2022-09-23T19:54:27.176Z,14.57
2022-09-23T19:56:54.206Z,14.56
2022-09-23T19:59:20.740Z,14.58
2022-09-23T20:01:48.618Z,14.56
2022-09-23T20:04:15.796Z,14.55
2022-09-23T20:06:42.535Z,14.55
2022-09-23T20:09:09.030Z,14.54
2022-09-23T20:11:35.539Z,14.53
2022-09-23T20:14:03.131Z,14.48
2022-09-23T20:16:32.835Z,14.43
2022-09-23T20:19:00.347Z,14.40
2022-09-23T20:21:27.652Z,14.36
2022-09-23T20:23:54.104Z,14.30
2022-09-23T20:26:20.451Z,14.24
2022-09-23T20:28:47.101Z,14.17
2022-09-23T20:31:14.565Z,14.17
2022-09-23T20:33:41.088Z,14.10
2022-09-23T20:36:11.729Z,14.07
2022-09-23T20:38:38.340Z,14.06
2022-09-23T20:41:04.814Z,14.07
2022-09-23T20:43:31.240Z,14.08
2022-09-23T20:45:57.786Z,14.12
2022-09-23T20:48:24.473Z,14.18
2022-09-23T20:50:50.857Z,14.19
2022-09-23T20:53:18.753Z,14.12
2022-09-23T20:55:52.587Z,14.06
2022-09-23T20:58:19.682Z,14.10
2022-09-23T21:00:46.252Z,14.34
2022-09-23T21:03:13.653Z,14.39
2022-09-23T21:05:40.260Z,14.38
2022-09-23T21:08:06.714Z,14.37
2022-09-23T21:10:33.151Z,14.40
2022-09-23T21:12:59.944Z,14.33
2022-09-23T21:15:26.684Z,14.29
2022-09-23T21:17:53.318Z,14.29
2022-09-23T21:20:19.936Z,14.29
2022-09-23T21:22:49.728Z,14.29
2022-09-23T21:25:27.536Z,14.28
2022-09-23T21:27:54.842Z,14.28
2022-09-23T21:30:21.232Z,14.24
2022-09-23T21:32:47.660Z,14.23
2022-09-23T21:35:16.770Z,14.27
2022-09-23T21:37:43.196Z,14.26
2022-09-23T21:40:10.117Z,14.26
2022-09-23T21:42:36.868Z,14.30
2022-09-23T21:45:03.460Z,14.25
2022-09-23T21:47:29.894Z,14.24
2022-09-23T21:49:56.560Z,14.27
2022-09-23T21:52:23.058Z,14.28
2022-09-23T21:55:02.239Z,14.31
2022-09-23T21:57:45.186Z,14.32
2022-09-23T22:00:12.146Z,14.32
2022-09-23T22:02:38.591Z,14.40
2022-09-23T22:05:06.259Z,14.36
2022-09-23T22:07:35.908Z,14.29
2022-09-23T22:10:02.428Z,14.31
2022-09-23T22:12:28.836Z,14.22
2022-09-23T22:14:55.371Z,14.20
2022-09-23T22:17:21.881Z,14.20
2022-09-23T22:19:48.409Z,14.25
2022-09-23T22:22:17.365Z,14.30
2022-09-23T22:24:45.818Z,14.38
2022-09-23T22:27:14.200Z,14.43
2022-09-23T22:29:40.673Z,14.47
2022-09-23T22:32:10.836Z,14.57
2022-09-23T22:34:49.621Z,14.56
2022-09-23T22:37:20.091Z,14.55
2022-09-23T22:39:46.771Z,14.55
2022-09-23T22:42:13.569Z,14.60
2022-09-23T22:44:40.197Z,14.60
2022-09-23T22:47:07.212Z,14.69
2022-09-23T22:49:33.689Z,14.71
2022-09-23T22:52:01.239Z,14.75
2022-09-23T22:54:33.402Z,14.80
2022-09-23T22:57:00.851Z,14.88
2022-09-23T22:59:27.387Z,14.93
2022-09-23T23:01:53.884Z,14.88
2022-09-23T23:04:21.632Z,14.92
2022-09-23T23:06:47.990Z,14.96
2022-09-23T23:09:20.160Z,15.01
2022-09-23T23:11:46.783Z,14.98
2022-09-23T23:14:16.005Z,15.01
2022-09-23T23:16:43.361Z,14.96
2022-09-23T23:19:11.849Z,14.92
2022-09-23T23:21:38.347Z,14.97
2022-09-23T23:24:05.249Z,15.01
2022-09-23T23:26:33.806Z,15.03
2022-09-23T23:29:01.507Z,14.98
2022-09-23T23:31:29.205Z,14.99
2022-09-23T23:33:55.685Z,14.96
2022-09-23T23:36:25.843Z,15.03
2022-09-23T23:38:52.275Z,15.13
2022-09-23T23:41:21.036Z,15.14
2022-09-23T23:43:49.590Z,15.07
2022-09-23T23:46:16.051Z,15.14
2022-09-23T23:48:42.759Z,15.23
2022-09-23T23:51:11.092Z,15.27
2022-09-23T23:53:39.985Z,15.32
2022-09-23T23:56:09.750Z,15.33
2022-09-23T23:58:36.569Z,15.34
